Time;durP1;ratioP1;P1;durP2;ratioP2;P2;SDS_P1;SDS_P2;PMS_P1;PMS_P2;Temp;Humidity;BMP_temperature;BMP_pressure;BME280_temperature;BME280_humidity;BME280_pressure;Samples;Min_cycle;Max_cycle;Signal;HPM_P1;HPM_P2
2024/03/12 00:02:16;;;;;;;2.75;1.90;;;;;;;;;;5066328;28;20400;-76
2024/03/12 00:04:42;;;;;;;2.63;1.80;;;;;;;;;;5043843;28;20119;-76
2024/03/12 00:07:09;;;;;;;2.83;1.65;;;6.30;99.90;;;;;;5051305;28;20033;-76
2024/03/12 00:09:37;;;;;;;2.55;1.67;;;6.20;99.90;;;;;;5061308;28;20020;-77
2024/03/12 00:12:03;;;;;;;2.95;1.85;;;6.10;99.90;;;;;;5065663;28;20537;-76
2024/03/12 00:14:33;;;;;;;5.25;2.10;;;6.10;99.90;;;;;;5043575;28;20041;-76
2024/03/12 00:16:59;;;;;;;3.22;1.63;;;6.00;99.90;;;;;;5050482;28;20020;-76
2024/03/12 00:19:26;;;;;;;4.95;2.28;;;6.10;99.90;;;;;;5042367;28;20116;-77
2024/03/12 00:21:52;;;;;;;3.40;1.45;;;6.10;99.90;;;;;;5026606;28;20668;-76
2024/03/12 00:24:18;;;;;;;1.73;1.60;;;6.10;99.90;;;;;;5076294;28;20048;-77
2024/03/12 00:26:44;;;;;;;3.03;1.90;;;6.10;99.90;;;;;;5057455;28;20085;-76
2024/03/12 00:29:09;;;;;;;3.47;2.03;;;6.10;99.90;;;;;;5090860;28;20016;-76
2024/03/12 00:31:35;;;;;;;5.28;1.90;;;6.10;99.90;;;;;;5066858;28;20024;-76
2024/03/12 00:34:01;;;;;;;4.47;2.17;;;6.00;99.90;;;;;;5070488;28;20028;-78
2024/03/12 00:36:28;;;;;;;2.42;1.60;;;6.10;99.90;;;;;;5088842;28;20024;-77
2024/03/12 00:38:57;;;;;;;3.58;2.05;;;6.10;99.90;;;;;;5086580;28;20146;-77
2024/03/12 00:41:23;;;;;;;3.80;1.90;;;6.10;99.90;;;;;;5074595;28;20025;-77
2024/03/12 00:43:52;;;;;;;3.22;1.88;;;6.20;99.90;;;;;;5091348;28;20302;-77
2024/03/12 00:46:18;;;;;;;5.53;2.30;;;6.10;99.90;;;;;;5086846;28;20025;-77
2024/03/12 00:48:46;;;;;;;2.65;1.70;;;6.10;99.90;;;;;;5072009;28;20033;-77
2024/03/12 00:51:12;;;;;;;6.68;2.03;;;6.10;99.90;;;;;;5071771;28;20458;-77
2024/03/12 00:53:39;;;;;;;2.53;2.03;;;6.10;99.90;;;;;;5085530;28;20107;-77
2024/03/12 00:56:04;;;;;;;3.97;1.85;;;6.10;99.90;;;;;;5081808;28;20033;-77
2024/03/12 00:58:33;;;;;;;3.40;2.17;;;6.00;99.90;;;;;;5079978;28;20055;-77
2024/03/12 01:01:00;;;;;;;4.30;2.30;;;6.00;99.90;;;;;;5073050;28;20052;-77
2024/03/12 01:03:26;;;;;;;3.25;2.20;;;5.90;99.90;;;;;;5067191;28;20031;-77
2024/03/12 01:05:53;;;;;;;2.60;2.00;;;5.90;99.90;;;;;;5066867;28;20032;-78
2024/03/12 01:08:20;;;;;;;3.72;2.00;;;5.80;99.90;;;;;;5081483;28;20567;-78
2024/03/12 01:10:47;;;;;;;3.25;1.90;;;5.80;99.90;;;;;;5089823;28;20078;-77
2024/03/12 01:13:13;;;;;;;3.15;1.80;;;5.70;99.90;;;;;;5092672;28;20024;-77
2024/03/12 01:15:39;;;;;;;3.78;2.20;;;5.70;99.90;;;;;;5089478;28;20505;-78
2024/03/12 01:18:05;;;;;;;8.45;2.45;;;5.70;99.90;;;;;;5056093;28;20033;-78
2024/03/12 01:20:34;;;;;;;2.63;1.80;;;5.70;99.90;;;;;;5069674;28;20028;-79
2024/03/12 01:23:01;;;;;;;3.07;1.70;;;5.70;99.90;;;;;;5092190;28;20020;-78
2024/03/12 01:25:29;;;;;;;4.25;1.85;;;5.70;99.90;;;;;;5064574;28;20044;-78
2024/03/12 01:27:55;;;;;;;4.15;1.88;;;5.60;99.90;;;;;;5046908;28;20083;-78
2024/03/12 01:30:28;;;;;;;4.15;2.28;;;5.60;99.90;;;;;;5067210;28;20376;-78
2024/03/12 01:32:57;;;;;;;3.15;2.10;;;5.50;99.90;;;;;;5035914;28;20474;-77
2024/03/12 01:35:24;;;;;;;2.55;1.60;;;5.50;99.90;;;;;;5075181;28;20107;-77
2024/03/12 01:37:51;;;;;;;4.00;1.55;;;5.50;99.90;;;;;;5077732;28;20017;-77
2024/03/12 01:40:21;;;;;;;3.25;2.00;;;5.40;99.90;;;;;;5083118;28;20017;-77
2024/03/12 01:42:56;;;;;;;4.90;2.10;;;5.40;99.90;;;;;;5086055;28;20020;-77
2024/03/12 01:45:25;;;;;;;3.75;2.08;;;5.40;99.90;;;;;;5081608;28;20309;-76
2024/03/12 01:48:22;;;;;;;2.58;1.75;;;5.30;99.90;;;;;;5070621;28;20017;-77
2024/03/12 01:50:49;;;;;;;2.95;1.90;;;5.20;99.90;;;;;;5033926;28;20040;-77
2024/03/12 01:53:15;;;;;;;4.60;1.80;;;5.20;99.90;;;;;;5073569;28;20035;-77
2024/03/12 01:55:43;;;;;;;2.55;1.70;;;5.10;99.90;;;;;;5068209;28;20618;-77
2024/03/12 01:58:18;;;;;;;2.55;1.67;;;5.00;99.90;;;;;;5059925;28;20396;-77
2024/03/12 02:00:45;;;;;;;2.75;1.70;;;4.90;99.90;;;;;;5004334;28;20028;-77
2024/03/12 02:03:11;;;;;;;3.40;1.70;;;4.80;99.90;;;;;;5067977;28;20043;-77
2024/03/12 02:05:36;;;;;;;2.60;1.77;;;4.80;99.90;;;;;;5058768;28;20037;-77
2024/03/12 02:08:02;;;;;;;2.83;1.83;;;4.80;99.90;;;;;;5060506;28;20025;-78
2024/03/12 02:10:28;;;;;;;2.60;1.83;;;4.70;99.90;;;;;;5065526;28;20104;-78
2024/03/12 02:12:54;;;;;;;4.50;2.03;;;4.70;99.90;;;;;;5048331;28;20029;-78
2024/03/12 02:15:22;;;;;;;2.15;1.65;;;4.60;99.90;;;;;;5049735;28;20033;-78
2024/03/12 02:17:51;;;;;;;2.75;2.05;;;4.60;99.90;;;;;;5024513;28;20068;-77
2024/03/12 02:20:17;;;;;;;2.55;2.03;;;4.50;99.90;;;;;;5018719;28;20675;-78
2024/03/12 02:22:43;;;;;;;3.10;2.10;;;4.60;99.90;;;;;;5051004;28;20070;-76
2024/03/12 02:25:10;;;;;;;2.85;2.28;;;4.60;99.90;;;;;;5089017;28;20095;-77
2024/03/12 02:27:37;;;;;;;2.42;1.92;;;4.60;99.90;;;;;;5089692;28;20012;-77
2024/03/12 02:30:04;;;;;;;3.47;2.00;;;4.60;99.90;;;;;;5085266;28;20038;-78
2024/03/12 02:32:29;;;;;;;2.35;1.70;;;4.60;99.90;;;;;;5087329;28;20020;-77
2024/03/12 02:34:55;;;;;;;3.60;2.10;;;4.50;99.90;;;;;;5087453;28;20406;-77
2024/03/12 02:37:21;;;;;;;4.18;1.92;;;4.50;99.90;;;;;;5087787;28;20030;-78
2024/03/12 02:39:47;;;;;;;4.75;2.65;;;4.40;99.90;;;;;;5089255;28;20034;-78
2024/03/12 02:42:12;;;;;;;5.07;2.15;;;4.40;99.90;;;;;;5090023;28;20501;-77
2024/03/12 02:44:39;;;;;;;5.03;2.42;;;4.30;99.90;;;;;;5069659;28;20028;-77
2024/03/12 02:47:05;;;;;;;4.97;2.30;;;4.30;99.90;;;;;;5091623;28;20015;-77
2024/03/12 02:49:31;;;;;;;2.92;2.10;;;4.40;99.90;;;;;;5090437;28;20151;-77
2024/03/12 02:52:00;;;;;;;3.97;2.20;;;4.40;99.90;;;;;;5093199;28;20167;-77
2024/03/12 02:54:26;;;;;;;4.03;2.17;;;4.40;99.90;;;;;;5088554;28;20084;-79
2024/03/12 02:56:53;;;;;;;4.18;2.40;;;4.40;99.90;;;;;;5089491;28;20031;-78
2024/03/12 02:59:21;;;;;;;5.60;2.35;;;4.30;99.90;;;;;;5074702;28;20047;-79
2024/03/12 03:01:47;;;;;;;4.35;2.45;;;4.30;99.90;;;;;;5075424;28;20024;-79
2024/03/12 03:04:12;;;;;;;4.00;2.47;;;4.20;99.90;;;;;;5052194;28;20039;-78
2024/03/12 03:06:38;;;;;;;5.93;2.63;;;4.20;99.90;;;;;;5065574;28;20059;-78
2024/03/12 03:09:05;;;;;;;7.22;2.97;;;;;;;;;;5093187;28;20375;-78
2024/03/12 03:11:33;;;;;;;4.85;2.63;;;4.20;99.90;;;;;;5076607;28;20434;-78
2024/03/12 03:14:02;;;;;;;4.35;2.22;;;4.10;99.90;;;;;;5090761;28;20028;-78
2024/03/12 03:16:28;;;;;;;3.85;2.50;;;4.20;99.90;;;;;;5093358;28;20032;-80
2024/03/12 03:18:57;;;;;;;3.22;2.30;;;4.30;99.90;;;;;;5074848;28;20032;-78
2024/03/12 03:21:24;;;;;;;4.47;2.30;;;4.30;99.90;;;;;;5090857;28;20339;-79
2024/03/12 03:23:50;;;;;;;4.05;2.47;;;4.40;99.90;;;;;;5091485;28;20036;-79
2024/03/12 03:26:16;;;;;;;2.70;2.22;;;4.50;99.90;;;;;;5093284;28;20107;-78
2024/03/12 03:28:41;;;;;;;4.00;2.60;;;4.40;99.90;;;;;;5090334;28;20055;-79
2024/03/12 03:31:10;;;;;;;3.45;2.13;;;4.30;99.90;;;;;;5100091;28;20032;-79
2024/03/12 03:33:37;;;;;;;4.63;2.28;;;4.30;99.90;;;;;;5074314;28;20021;-78
2024/03/12 03:36:03;;;;;;;3.58;2.65;;;4.20;99.90;;;;;;5092521;28;20348;-78
2024/03/12 03:38:30;;;;;;;4.75;2.60;;;4.20;99.90;;;;;;5039501;28;20563;-79
2024/03/12 03:40:56;;;;;;;3.03;2.55;;;4.20;99.90;;;;;;5099597;28;20099;-78
2024/03/12 03:43:22;;;;;;;3.95;2.17;;;4.20;99.90;;;;;;5089577;28;20468;-78
2024/03/12 03:45:47;;;;;;;3.65;2.50;;;4.30;99.90;;;;;;5088622;28;20032;-78
2024/03/12 03:48:13;;;;;;;2.58;2.25;;;4.30;99.90;;;;;;5088028;28;20021;-78
2024/03/12 03:50:40;;;;;;;3.30;2.20;;;4.40;99.90;;;;;;5071354;28;20024;-78
2024/03/12 03:53:08;;;;;;;3.78;2.10;;;4.60;99.90;;;;;;5070618;28;20105;-78
2024/03/12 03:55:34;;;;;;;5.57;2.42;;;4.70;99.90;;;;;;5082919;28;20038;-78
2024/03/12 03:58:00;;;;;;;3.35;2.60;;;4.90;99.90;;;;;;5059420;28;20135;-78
2024/03/12 04:00:31;;;;;;;3.58;2.20;;;5.00;99.90;;;;;;5097085;28;20139;-78
2024/03/12 04:02:57;;;;;;;2.70;2.13;;;5.20;99.90;;;;;;5093640;28;20058;-78
2024/03/12 04:05:25;;;;;;;3.33;2.10;;;5.30;99.90;;;;;;5093264;28;20055;-77
2024/03/12 04:07:50;;;;;;;4.22;2.10;;;5.40;99.90;;;;;;5090772;28;20114;-77
2024/03/12 04:10:17;;;;;;;2.25;1.70;;;5.40;99.90;;;;;;5076152;28;20119;-78
2024/03/12 04:12:44;;;;;;;3.08;2.13;;;5.60;99.90;;;;;;5074463;28;20081;-78
2024/03/12 04:15:11;;;;;;;3.35;2.03;;;5.70;99.90;;;;;;5070734;28;20027;-77
2024/03/12 04:17:37;;;;;;;2.42;1.77;;;5.90;99.90;;;;;;5074163;28;20474;-77
2024/03/12 04:20:09;;;;;;;4.63;2.25;;;6.00;99.90;;;;;;5088357;28;20020;-76
2024/03/12 04:22:39;;;;;;;2.38;1.80;;;6.20;99.90;;;;;;5094161;28;20034;-77
2024/03/12 04:25:07;;;;;;;3.10;1.88;;;6.20;99.90;;;;;;5056699;28;20040;-77
2024/03/12 04:27:37;;;;;;;2.90;1.70;;;6.30;99.90;;;;;;5093084;28;20042;-77
2024/03/12 04:30:14;;;;;;;3.13;1.77;;;6.40;99.90;;;;;;5074471;28;20178;-77
2024/03/12 04:32:40;;;;;;;2.45;1.70;;;6.40;99.90;;;;;;5092703;28;20368;-77
2024/03/12 04:35:12;;;;;;;4.93;1.75;;;6.40;99.90;;;;;;5093338;28;20024;-76
2024/03/12 04:37:38;;;;;;;2.72;1.70;;;6.50;99.90;;;;;;5092650;28;20039;-76
2024/03/12 04:40:06;;;;;;;3.92;1.80;;;6.50;99.90;;;;;;5073337;28;20035;-78
2024/03/12 04:42:37;;;;;;;5.07;1.90;;;6.60;99.90;;;;;;5055511;28;20046;-78
2024/03/12 04:45:25;;;;;;;4.28;1.80;;;6.70;99.90;;;;;;5081102;28;20016;-77
2024/03/12 04:47:51;;;;;;;3.42;1.90;;;6.70;99.90;;;;;;5090828;28;20035;-78
2024/03/12 04:50:19;;;;;;;2.42;1.83;;;6.70;99.90;;;;;;5089420;28;20020;-78
2024/03/12 04:52:52;;;;;;;2.80;1.52;;;6.70;99.90;;;;;;5092486;28;20107;-80
2024/03/12 04:55:18;;;;;;;3.25;1.65;;;6.80;99.90;;;;;;5076576;28;20039;-78
2024/03/12 04:57:43;;;;;;;2.70;2.08;;;6.80;99.90;;;;;;5094322;28;20032;-78
2024/03/12 05:00:19;;;;;;;3.63;1.67;;;6.80;99.90;;;;;;5092067;28;20032;-81
2024/03/12 05:02:49;;;;;;;2.30;1.60;;;6.80;99.90;;;;;;5081170;28;20050;-78
2024/03/12 05:05:19;;;;;;;2.35;1.88;;;6.80;99.90;;;;;;5101507;28;20024;-78
2024/03/12 05:07:45;;;;;;;4.45;1.90;;;6.80;99.90;;;;;;5096875;28;20139;-79
2024/03/12 05:10:12;;;;;;;2.60;1.67;;;6.80;99.90;;;;;;5122403;28;20045;-79
2024/03/12 05:12:38;;;;;;;2.25;1.55;;;6.70;99.90;;;;;;5115239;28;20008;-79
2024/03/12 05:15:07;;;;;;;2.63;1.88;;;6.70;99.90;;;;;;5098757;28;20257;-78
2024/03/12 05:17:42;;;;;;;5.07;1.92;;;6.60;99.90;;;;;;5063648;28;20046;-78
2024/03/12 05:20:17;;;;;;;2.33;1.50;;;6.50;99.90;;;;;;5086464;28;20098;-78
2024/03/12 05:22:44;;;;;;;2.78;1.70;;;6.40;99.90;;;;;;5072384;28;20047;-76
2024/03/12 05:25:19;;;;;;;3.17;1.88;;;6.30;99.90;;;;;;5090178;28;20115;-79
2024/03/12 05:27:47;;;;;;;3.08;2.20;;;6.30;99.90;;;;;;5091202;28;20042;-77
2024/03/12 05:30:16;;;;;;;2.05;1.83;;;6.20;99.90;;;;;;5064880;28;20396;-77
2024/03/12 05:32:48;;;;;;;4.00;2.13;;;6.10;99.90;;;;;;5054994;28;20050;-72
2024/03/12 05:35:21;;;;;;;2.78;1.92;;;6.00;99.90;;;;;;5090169;28;20040;-72
2024/03/12 05:38:03;;;;;;;3.53;1.92;;;6.00;99.90;;;;;;5072550;28;20028;-73
2024/03/12 05:48:49;;;;;;;2.58;2.10;;;5.90;99.90;;;;;;5065601;28;20404;-71
2024/03/12 05:51:15;;;;;;;3.45;2.10;;;5.90;99.90;;;;;;5098720;28;20119;-72
2024/03/12 05:53:41;;;;;;;4.10;2.30;;;5.90;99.90;;;;;;5089268;28;20020;-72
2024/03/12 05:56:12;;;;;;;4.93;2.08;;;5.90;99.90;;;;;;5090405;28;20028;-70
2024/03/12 05:58:39;;;;;;;3.25;2.10;;;6.00;99.90;;;;;;5070317;28;20029;-71
2024/03/12 06:01:05;;;;;;;3.17;2.10;;;6.00;99.90;;;;;;5090754;28;20024;-71
2024/03/12 06:03:35;;;;;;;4.82;2.15;;;6.00;99.90;;;;;;5078050;28;20020;-72
2024/03/12 06:06:04;;;;;;;4.78;2.50;;;6.10;99.90;;;;;;5062396;28;20035;-71
2024/03/12 06:08:30;;;;;;;4.22;2.00;;;6.20;99.90;;;;;;5089387;28;20387;-69
2024/03/12 06:10:56;;;;;;;2.35;1.85;;;6.20;99.90;;;;;;5087342;28;20016;-69
2024/03/12 06:13:22;;;;;;;3.88;2.08;;;6.30;99.90;;;;;;5073923;28;20027;-71
2024/03/12 06:15:49;;;;;;;3.38;2.10;;;6.30;99.90;;;;;;5064499;28;20488;-71
2024/03/12 06:18:17;;;;;;;4.28;2.03;;;6.40;99.90;;;;;;5050508;28;20069;-71
2024/03/12 06:20:46;;;;;;;3.88;2.25;;;6.50;99.90;;;;;;5086298;28;20035;-72
2024/03/12 06:23:18;;;;;;;3.92;2.30;;;6.50;99.90;;;;;;5089873;28;20161;-72
2024/03/12 06:25:46;;;;;;;6.25;2.03;;;6.60;99.90;;;;;;5076271;28;20134;-72
2024/03/12 06:28:13;;;;;;;2.67;2.28;;;6.60;99.90;;;;;;5087770;28;20483;-73
2024/03/12 06:30:39;;;;;;;4.93;2.65;;;6.60;99.90;;;;;;5071396;28;20066;-72
2024/03/12 06:33:07;;;;;;;3.78;2.80;;;6.70;99.90;;;;;;5071399;28;20495;-72
2024/03/12 06:35:34;;;;;;;5.82;2.22;;;6.70;99.90;;;;;;5068814;28;20031;-72
2024/03/12 06:38:01;;;;;;;4.55;2.20;;;6.70;99.90;;;;;;5092366;28;20013;-72
2024/03/12 06:40:27;;;;;;;4.40;2.60;;;6.70;99.90;;;;;;5069202;28;20028;-72
2024/03/12 06:42:52;;;;;;;3.97;2.50;;;6.80;99.90;;;;;;5088792;28;20341;-72
2024/03/12 06:45:18;;;;;;;4.25;2.10;;;6.90;99.90;;;;;;5085293;28;20048;-71
2024/03/12 06:47:46;;;;;;;6.18;2.63;;;7.00;99.90;;;;;;5087732;28;20089;-71
2024/03/12 06:50:12;;;;;;;4.72;2.30;;;7.10;99.90;;;;;;5089711;28;20123;-75
2024/03/12 06:52:38;;;;;;;4.60;2.42;;;7.10;99.90;;;;;;5066464;28;20119;-73
2024/03/12 06:55:12;;;;;;;2.22;1.92;;;7.20;99.90;;;;;;5089621;28;20032;-75
2024/03/12 06:57:47;;;;;;;2.88;1.60;;;7.30;99.90;;;;;;5094883;28;20047;-74
2024/03/12 07:00:26;;;;;;;6.30;2.33;;;7.30;99.90;;;;;;5089736;28;20113;-76
2024/03/12 07:02:53;;;;;;;4.20;2.42;;;7.30;99.90;;;;;;5062962;28;20350;-76
2024/03/12 07:05:20;;;;;;;4.07;2.45;;;7.40;99.90;;;;;;5087104;28;20114;-74
2024/03/12 07:07:47;;;;;;;3.08;1.90;;;7.40;99.90;;;;;;5078793;28;20406;-76
2024/03/12 07:10:15;;;;;;;5.28;2.15;;;7.50;99.90;;;;;;5034247;28;20040;-77
2024/03/12 07:12:42;;;;;;;3.47;1.95;;;7.50;99.90;;;;;;5083224;28;20024;-75
2024/03/12 07:15:11;;;;;;;6.28;2.00;;;7.60;99.90;;;;;;5085391;28;20031;-76
2024/03/12 07:17:45;;;;;;;3.13;1.88;;;7.60;99.90;;;;;;5082302;28;20426;-75
2024/03/12 07:20:14;;;;;;;2.42;1.98;;;7.60;99.90;;;;;;5086292;28;20043;-75
2024/03/12 07:22:45;;;;;;;3.33;2.10;;;7.70;99.90;;;;;;5087401;28;20031;-75
2024/03/12 07:25:11;;;;;;;4.20;1.83;;;7.70;99.90;;;;;;5087575;28;20052;-75
2024/03/12 07:27:38;;;;;;;3.80;2.20;;;7.70;99.90;;;;;;5089461;28;20552;-75
2024/03/12 07:30:13;;;;;;;4.18;1.95;;;7.70;99.90;;;;;;5086676;28;20024;-75
2024/03/12 07:32:39;;;;;;;4.53;1.70;;;7.80;99.90;;;;;;5036597;28;20075;-76
2024/03/12 07:35:07;;;;;;;3.95;2.10;;;8.00;99.90;;;;;;5097290;28;20023;-75
2024/03/12 07:37:38;;;;;;;1.85;1.55;;;8.00;99.90;;;;;;5109427;28;20028;-76
2024/03/12 07:40:09;;;;;;;4.30;2.08;;;8.00;99.90;;;;;;5055137;28;20040;-75
2024/03/12 07:42:36;;;;;;;2.55;1.50;;;8.00;99.90;;;;;;5097616;28;20035;-75
2024/03/12 07:45:01;;;;;;;2.28;1.80;;;7.90;99.90;;;;;;5106049;28;20059;-75
2024/03/12 07:47:29;;;;;;;2.88;1.60;;;8.00;99.90;;;;;;5072623;28;20097;-76
2024/03/12 07:49:57;;;;;;;3.00;1.60;;;7.90;99.90;;;;;;5099205;28;20020;-75
2024/03/12 07:52:24;;;;;;;3.20;1.70;;;8.00;99.90;;;;;;5092955;28;20028;-75
2024/03/12 07:54:52;;;;;;;4.68;1.50;;;8.00;99.90;;;;;;5090325;28;20028;-75
2024/03/12 07:57:18;;;;;;;3.53;1.23;;;7.90;99.90;;;;;;5071872;28;20028;-76
2024/03/12 07:59:46;;;;;;;2.65;1.45;;;7.90;99.90;;;;;;5096641;28;20031;-75
2024/03/12 08:02:13;;;;;;;2.33;1.35;;;7.90;99.90;;;;;;5062152;28;20404;-75
2024/03/12 08:04:45;;;;;;;2.90;1.35;;;7.90;99.90;;;;;;5062850;28;20024;-74
2024/03/12 08:07:11;;;;;;;2.72;1.35;;;7.90;99.90;;;;;;5092670;28;20065;-75
2024/03/12 08:09:38;;;;;;;3.72;1.45;;;7.90;99.90;;;;;;5090649;28;20027;-76
2024/03/12 08:12:04;;;;;;;0.90;0.90;;;7.90;99.90;;;;;;5096042;28;20020;-76
2024/03/12 08:14:34;;;;;;;5.03;1.40;;;8.00;99.90;;;;;;5089389;28;20024;-76
2024/03/12 08:17:04;;;;;;;1.83;1.35;;;8.00;99.90;;;;;;5098189;28;20105;-75
2024/03/12 08:19:32;;;;;;;6.43;1.00;;;8.00;99.90;;;;;;5089999;28;20035;-75
2024/03/12 08:21:58;;;;;;;1.30;1.15;;;8.10;99.90;;;;;;5088215;28;20101;-75
2024/03/12 08:24:25;;;;;;;1.67;1.00;;;8.10;99.90;;;;;;5084330;28;20051;-75
2024/03/12 08:26:51;;;;;;;1.70;1.02;;;8.20;99.90;;;;;;5055586;28;20021;-76
2024/03/12 08:29:17;;;;;;;3.20;1.10;;;8.30;99.90;;;;;;5071084;28;20047;-76
2024/03/12 08:31:43;;;;;;;3.53;1.02;;;8.40;99.90;;;;;;5052820;28;20115;-75
2024/03/12 08:34:13;;;;;;;3.30;1.10;;;8.40;99.90;;;;;;5084108;28;20028;-76
2024/03/12 08:36:39;;;;;;;1.42;1.20;;;8.50;99.90;;;;;;5083921;28;20052;-76
2024/03/12 08:39:06;;;;;;;1.65;1.20;;;8.50;99.90;;;;;;5068145;28;20496;-75
2024/03/12 08:41:33;;;;;;;7.78;1.20;;;8.50;99.90;;;;;;5087273;28;20032;-76
2024/03/12 08:43:58;;;;;;;2.88;0.77;;;8.50;99.90;;;;;;5082422;28;20024;-72
2024/03/12 08:46:25;;;;;;;2.55;1.10;;;8.50;99.90;;;;;;5083225;28;20042;-72
2024/03/12 08:48:52;;;;;;;2.13;1.25;;;8.50;99.90;;;;;;5091421;28;20016;-72
2024/03/12 08:51:18;;;;;;;1.25;1.00;;;8.50;99.90;;;;;;5074966;28;20009;-71
2024/03/12 08:53:44;;;;;;;1.45;1.00;;;8.50;99.90;;;;;;5073059;28;20085;-72
2024/03/12 08:56:11;;;;;;;3.70;0.90;;;8.50;99.90;;;;;;5096176;28;20087;-72
2024/03/12 08:58:36;;;;;;;2.55;0.98;;;8.50;99.90;;;;;;5066937;28;20032;-71
2024/03/12 09:01:03;;;;;;;1.10;0.88;;;8.50;99.90;;;;;;5077528;28;20107;-72
2024/03/12 09:03:29;;;;;;;1.10;1.00;;;8.60;99.90;;;;;;5092002;28;20028;-72
2024/03/12 09:05:55;;;;;;;1.20;0.90;;;8.60;99.90;;;;;;5091025;28;20404;-72
2024/03/12 09:08:22;;;;;;;2.35;1.20;;;8.70;99.90;;;;;;5084049;28;20049;-71
2024/03/12 09:10:48;;;;;;;1.77;1.10;;;8.70;99.90;;;;;;5085348;28;20020;-70
2024/03/12 09:13:18;;;;;;;5.75;1.20;;;8.70;99.90;;;;;;5079838;28;20076;-71
2024/03/12 09:15:44;;;;;;;2.13;1.25;;;8.70;99.90;;;;;;5081556;28;20032;-71
2024/03/12 09:18:10;;;;;;;2.85;1.40;;;8.80;99.90;;;;;;5100951;28;20036;-70
2024/03/12 09:20:36;;;;;;;1.70;1.33;;;9.00;99.90;;;;;;5088647;28;20626;-70
2024/03/12 09:23:03;;;;;;;5.10;1.70;;;9.10;99.90;;;;;;5067870;28;20032;-70
2024/03/12 09:25:32;;;;;;;2.53;2.00;;;9.20;99.90;;;;;;5080621;28;20048;-70
2024/03/12 09:27:58;;;;;;;2.83;2.10;;;9.20;99.90;;;;;;5069467;28;20071;-71
2024/03/12 09:30:24;;;;;;;6.18;2.63;;;9.30;99.90;;;;;;5066465;28;20530;-70
2024/03/12 09:32:53;;;;;;;7.75;2.70;;;9.50;99.90;;;;;;5065698;28;20060;-71
2024/03/12 09:35:18;;;;;;;5.07;2.60;;;9.60;99.90;;;;;;5057529;28;20403;-71
2024/03/12 09:37:45;;;;;;;6.03;2.38;;;9.70;99.90;;;;;;5068468;28;20024;-70
2024/03/12 09:40:13;;;;;;;3.38;2.17;;;9.90;99.90;;;;;;5063423;28;20111;-71
2024/03/12 09:42:44;;;;;;;4.07;2.10;;;9.90;99.90;;;;;;5054056;28;20032;-71
2024/03/12 09:45:11;;;;;;;3.95;1.80;;;9.80;99.90;;;;;;5041337;28;20033;-70
2024/03/12 09:47:37;;;;;;;3.88;2.17;;;9.90;99.90;;;;;;5064861;28;20052;-71
2024/03/12 09:50:10;;;;;;;3.35;1.63;;;9.90;99.90;;;;;;5053934;28;20380;-71
2024/03/12 09:52:39;;;;;;;3.83;2.00;;;9.90;99.90;;;;;;5052412;28;20064;-71
2024/03/12 09:55:10;;;;;;;5.68;2.75;;;9.90;99.90;;;;;;5046697;28;20448;-71
2024/03/12 09:57:44;;;;;;;3.60;1.85;;;9.90;99.90;;;;;;5061163;28;20027;-72
2024/03/12 10:00:14;;;;;;;5.70;2.30;;;9.90;99.90;;;;;;5038349;28;20091;-72
2024/03/12 10:02:41;;;;;;;3.75;2.28;;;9.90;99.90;;;;;;5072168;28;20027;-72
2024/03/12 10:05:12;;;;;;;3.33;2.20;;;10.00;99.90;;;;;;5043489;28;20527;-72
2024/03/12 10:08:07;;;;;;;3.15;1.80;;;10.00;99.90;;;;;;5053851;28;20483;-72
2024/03/12 10:10:37;;;;;;;4.28;2.35;;;10.00;99.90;;;;;;5077476;28;20052;-71
2024/03/12 10:13:04;;;;;;;5.47;2.40;;;10.10;99.90;;;;;;5075451;28;20022;-72
2024/03/12 10:15:30;;;;;;;12.57;3.00;;;10.10;99.90;;;;;;5052200;28;20020;-72
2024/03/12 10:18:00;;;;;;;3.88;2.08;;;10.20;99.90;;;;;;5081672;28;20712;-72
2024/03/12 10:20:30;;;;;;;3.95;2.60;;;10.30;99.90;;;;;;5070897;28;20554;-72
2024/03/12 10:23:09;;;;;;;20.88;3.67;;;10.20;99.90;;;;;;5057358;28;20067;-72
2024/03/12 10:25:38;;;;;;;8.20;3.20;;;10.10;99.90;;;;;;5067082;28;20115;-72
2024/03/12 10:28:05;;;;;;;5.68;2.28;;;10.10;99.90;;;;;;5071287;28;20059;-72
2024/03/12 10:30:31;;;;;;;10.95;2.75;;;10.10;99.90;;;;;;5059365;28;20138;-72
2024/03/12 10:32:57;;;;;;;6.15;2.53;;;10.20;99.90;;;;;;5066019;28;20021;-72
2024/03/12 10:35:23;;;;;;;6.18;2.20;;;10.30;99.90;;;;;;5058296;28;20159;-72
2024/03/12 10:37:50;;;;;;;3.92;2.25;;;10.30;99.90;;;;;;5060452;28;20040;-74
2024/03/12 10:40:19;;;;;;;14.13;2.83;;;10.40;99.90;;;;;;5069844;28;20032;-75
2024/03/12 10:42:57;;;;;;;4.63;2.65;;;10.30;99.90;;;;;;5031053;28;20035;-71
2024/03/12 10:45:24;;;;;;;3.83;1.95;;;10.30;99.90;;;;;;5042572;28;20031;-70
2024/03/12 10:47:50;;;;;;;3.70;1.90;;;10.30;99.90;;;;;;5071966;28;20107;-71
2024/03/12 10:50:17;;;;;;;4.47;2.08;;;10.20;99.90;;;;;;5072500;28;20444;-70
2024/03/12 10:52:46;;;;;;;4.82;1.77;;;10.30;99.90;;;;;;5079347;28;20484;-70
2024/03/12 10:55:21;;;;;;;2.25;1.40;;;10.20;99.90;;;;;;5064575;28;20029;-70
2024/03/12 10:57:53;;;;;;;3.85;1.90;;;10.20;99.90;;;;;;5060809;28;20024;-71
2024/03/12 11:00:25;;;;;;;3.13;1.80;;;10.10;99.90;;;;;;5079699;28;20017;-71
2024/03/12 11:02:55;;;;;;;4.07;1.52;;;10.20;99.90;;;;;;5064843;28;20020;-72
2024/03/12 11:05:25;;;;;;;2.38;1.70;;;10.10;99.90;;;;;;5040643;28;20442;-71
2024/03/12 11:07:57;;;;;;;4.00;1.40;;;10.00;99.90;;;;;;5067170;28;20017;-71
2024/03/12 11:10:25;;;;;;;2.25;1.35;;;10.00;99.90;;;;;;5075196;28;20024;-72
2024/03/12 11:12:54;;;;;;;2.40;1.27;;;10.00;99.90;;;;;;5059729;28;20101;-71
2024/03/12 11:15:20;;;;;;;4.55;1.35;;;9.90;99.90;;;;;;5051303;28;20028;-71
2024/03/12 11:17:48;;;;;;;1.98;1.30;;;9.90;99.90;;;;;;5074713;28;20016;-70
2024/03/12 11:20:18;;;;;;;1.55;1.13;;;9.90;99.90;;;;;;5072228;28;20502;-70
2024/03/12 11:22:45;;;;;;;2.63;1.10;;;9.80;99.90;;;;;;5071659;28;20036;-72
2024/03/12 11:25:15;;;;;;;1.55;1.15;;;9.90;99.90;;;;;;5079206;28;20377;-71
2024/03/12 11:27:43;;;;;;;1.50;1.27;;;9.80;99.90;;;;;;5050988;28;20426;-71
2024/03/12 11:30:18;;;;;;;3.13;1.50;;;9.90;99.90;;;;;;5072116;28;20021;-71
2024/03/12 11:32:49;;;;;;;4.68;2.40;;;9.80;99.90;;;;;;5073607;28;20052;-71
2024/03/12 11:35:18;;;;;;;3.70;2.17;;;9.80;99.90;;;;;;5065581;28;20148;-70
2024/03/12 11:38:15;;;;;;;3.17;2.53;;;9.80;99.90;;;;;;5066484;28;20495;-70
2024/03/12 11:40:47;;;;;;;3.65;2.63;;;9.80;99.90;;;;;;5076043;28;20400;-70
2024/03/12 11:43:40;;;;;;;3.47;2.00;;;9.80;99.90;;;;;;5069428;28;20042;-71
2024/03/12 11:46:15;;;;;;;3.78;2.00;;;9.80;99.90;;;;;;5070514;28;20028;-71
2024/03/12 11:48:41;;;;;;;3.10;1.80;;;9.90;99.90;;;;;;5051532;28;20799;-72
2024/03/12 11:51:14;;;;;;;1.95;1.40;;;9.90;99.90;;;;;;5084736;28;20571;-71
2024/03/12 11:53:42;;;;;;;4.22;1.75;;;9.90;99.90;;;;;;5058991;28;20105;-71
2024/03/12 11:56:11;;;;;;;2.22;1.40;;;9.90;99.90;;;;;;5077930;28;20111;-71
2024/03/12 11:58:46;;;;;;;1.80;1.40;;;9.90;99.90;;;;;;5073465;28;20047;-71
2024/03/12 12:01:23;;;;;;;2.55;1.60;;;9.90;99.90;;;;;;5079475;28;20507;-71
2024/03/12 12:04:14;;;;;;;4.43;1.63;;;9.90;99.90;;;;;;5074664;28;20072;-71
2024/03/12 12:06:41;;;;;;;4.72;3.20;;;9.90;99.90;;;;;;5058868;28;20032;-71
2024/03/12 12:09:09;;;;;;;5.53;3.50;;;10.00;99.90;;;;;;5058648;28;20740;-73
2024/03/12 12:11:36;;;;;;;8.95;5.10;;;9.90;99.90;;;;;;5051073;28;20025;-71
2024/03/12 12:14:08;;;;;;;8.57;4.85;;;10.00;99.90;;;;;;5073151;28;20031;-71
2024/03/12 12:16:35;;;;;;;8.13;5.38;;;10.00;99.90;;;;;;5068711;28;20044;-71
2024/03/12 12:19:08;;;;;;;11.38;6.13;;;10.00;99.90;;;;;;5082346;28;20016;-71
2024/03/12 12:21:35;;;;;;;9.82;6.65;;;10.00;99.90;;;;;;5053068;28;20024;-72
2024/03/12 12:24:01;;;;;;;12.35;6.57;;;10.00;99.90;;;;;;5071137;28;20055;-71
2024/03/12 12:26:27;;;;;;;12.55;7.95;;;10.00;99.90;;;;;;5065998;28;20051;-70
2024/03/12 12:28:54;;;;;;;13.60;8.52;;;10.00;99.90;;;;;;5074474;28;20696;-71
2024/03/12 12:31:21;;;;;;;13.50;7.90;;;10.00;99.90;;;;;;5080666;28;20013;-70
2024/03/12 12:33:50;;;;;;;10.20;6.78;;;10.00;99.90;;;;;;5069695;28;20024;-71
2024/03/12 12:36:27;;;;;;;9.50;5.97;;;10.10;99.90;;;;;;5077946;28;20040;-70
2024/03/12 12:38:54;;;;;;;9.05;5.75;;;10.20;99.90;;;;;;5072034;28;20371;-71
2024/03/12 12:41:23;;;;;;;8.18;5.22;;;10.40;99.90;;;;;;5080401;28;20048;-70
2024/03/12 12:43:54;;;;;;;6.30;3.35;;;10.40;99.90;;;;;;5084535;28;20024;-70
2024/03/12 12:46:26;;;;;;;6.43;3.03;;;10.50;99.90;;;;;;5073918;28;20056;-70
2024/03/12 12:48:55;;;;;;;4.60;3.08;;;10.40;99.90;;;;;;5053201;28;20292;-69
2024/03/12 12:51:26;;;;;;;7.03;4.35;;;10.40;99.90;;;;;;5035805;28;20017;-70
2024/03/12 12:53:52;;;;;;;9.20;4.18;;;10.40;99.90;;;;;;5068672;28;20024;-72
2024/03/12 12:56:21;;;;;;;7.65;4.72;;;10.30;99.90;;;;;;5071689;28;20032;-72
2024/03/12 12:58:48;;;;;;;8.60;5.20;;;10.30;99.90;;;;;;5069141;28;20419;-72
2024/03/12 13:01:17;;;;;;;9.82;5.80;;;10.20;99.90;;;;;;5057053;28;20054;-72
2024/03/12 13:03:46;;;;;;;9.20;5.80;;;10.20;99.90;;;;;;5060432;28;20492;-72
2024/03/12 13:06:18;;;;;;;10.00;6.28;;;10.20;99.90;;;;;;5061599;28;20082;-72
2024/03/12 13:08:51;;;;;;;9.77;6.63;;;10.20;99.90;;;;;;5065159;28;20020;-73
2024/03/12 13:11:18;;;;;;;13.00;8.07;;;10.20;99.90;;;;;;5040883;28;20025;-73